sensor_id;sensor_type;location;lat;lon;timestamp;pressure;altitude;pressure_sealevel;temperature;humidity
59417;BME280;45222;52.458;20.914;2023-07-08T00:02:55;101335.90;;;12.69;63.74
59417;BME280;45222;52.458;20.914;2023-07-08T00:06:41;101334.84;;;12.60;64.22
59417;BME280;45222;52.458;20.914;2023-07-08T00:10:28;101339.19;;;12.54;64.20
59417;BME280;45222;52.458;20.914;2023-07-08T00:14:14;101338.80;;;12.51;64.36
59417;BME280;45222;52.458;20.914;2023-07-08T00:18:01;101334.27;;;12.48;64.25
59417;BME280;45222;52.458;20.914;2023-07-08T00:21:47;101336.23;;;12.48;63.80
59417;BME280;45222;52.458;20.914;2023-07-08T00:25:33;101337.50;;;12.48;63.65
59417;BME280;45222;52.458;20.914;2023-07-08T00:29:19;101340.79;;;12.50;63.99
59417;BME280;45222;52.458;20.914;2023-07-08T00:33:05;101345.48;;;12.53;63.81
59417;BME280;45222;52.458;20.914;2023-07-08T00:36:52;101340.27;;;12.54;64.79
59417;BME280;45222;52.458;20.914;2023-07-08T00:40:38;101340.20;;;12.47;65.61
59417;BME280;45222;52.458;20.914;2023-07-08T00:44:33;101341.14;;;12.37;65.84
59417;BME280;45222;52.458;20.914;2023-07-08T00:48:21;101344.90;;;12.37;65.11
59417;BME280;45222;52.458;20.914;2023-07-08T00:52:17;101345.85;;;12.44;65.39
59417;BME280;45222;52.458;20.914;2023-07-08T00:56:04;101344.31;;;12.51;65.28
59417;BME280;45222;52.458;20.914;2023-07-08T00:59:54;101340.84;;;12.53;65.24
59417;BME280;45222;52.458;20.914;2023-07-08T01:03:42;101342.08;;;12.53;65.76
59417;BME280;45222;52.458;20.914;2023-07-08T01:07:33;101340.98;;;12.50;65.27
59417;BME280;45222;52.458;20.914;2023-07-08T01:11:20;101340.83;;;12.45;65.43
59417;BME280;45222;52.458;20.914;2023-07-08T01:15:07;101347.13;;;12.39;65.61
59417;BME280;45222;52.458;20.914;2023-07-08T01:18:54;101348.44;;;12.28;65.86
59417;BME280;45222;52.458;20.914;2023-07-08T01:22:41;101349.38;;;12.18;65.84
59417;BME280;45222;52.458;20.914;2023-07-08T01:26:28;101352.14;;;12.11;66.17
59417;BME280;45222;52.458;20.914;2023-07-08T01:30:15;101348.63;;;12.05;66.26
59417;BME280;45222;52.458;20.914;2023-07-08T01:34:02;101348.50;;;11.98;66.56
59417;BME280;45222;52.458;20.914;2023-07-08T01:37:48;101348.77;;;11.92;66.98
59417;BME280;45222;52.458;20.914;2023-07-08T01:41:35;101346.39;;;11.84;67.18
59417;BME280;45222;52.458;20.914;2023-07-08T01:45:22;101345.16;;;11.78;67.30
59417;BME280;45222;52.458;20.914;2023-07-08T01:49:09;101337.13;;;11.74;67.25
59417;BME280;45222;52.458;20.914;2023-07-08T01:52:56;101339.66;;;11.69;67.42
59417;BME280;45222;52.458;20.914;2023-07-08T01:56:42;101340.77;;;11.63;67.58
59417;BME280;45222;52.458;20.914;2023-07-08T02:00:29;101337.45;;;11.56;67.48
59417;BME280;45222;52.458;20.914;2023-07-08T02:04:15;101331.71;;;11.52;67.29
59417;BME280;45222;52.458;20.914;2023-07-08T02:08:01;101331.73;;;11.51;67.35
59417;BME280;45222;52.458;20.914;2023-07-08T02:11:47;101328.00;;;11.51;67.23
59417;BME280;45222;52.458;20.914;2023-07-08T02:15:33;101325.34;;;11.56;67.60
59417;BME280;45222;52.458;20.914;2023-07-08T02:19:20;101317.61;;;11.62;67.13
59417;BME280;45222;52.458;20.914;2023-07-08T02:23:09;101322.23;;;11.72;67.36
59417;BME280;45222;52.458;20.914;2023-07-08T02:26:55;101318.89;;;11.80;67.90
59417;BME280;45222;52.458;20.914;2023-07-08T02:30:42;101321.83;;;11.83;68.17
59417;BME280;45222;52.458;20.914;2023-07-08T02:34:28;101323.27;;;11.83;68.10
59417;BME280;45222;52.458;20.914;2023-07-08T02:38:14;101320.25;;;11.82;68.17
59417;BME280;45222;52.458;20.914;2023-07-08T02:42:00;101320.61;;;11.81;68.23
59417;BME280;45222;52.458;20.914;2023-07-08T02:45:47;101319.65;;;11.79;68.35
59417;BME280;45222;52.458;20.914;2023-07-08T02:49:34;101320.16;;;11.75;68.93
59417;BME280;45222;52.458;20.914;2023-07-08T02:53:20;101318.07;;;11.69;69.10
59417;BME280;45222;52.458;20.914;2023-07-08T02:57:06;101316.17;;;11.67;69.05
59417;BME280;45222;52.458;20.914;2023-07-08T03:00:53;101319.63;;;11.66;69.06
59417;BME280;45222;52.458;20.914;2023-07-08T03:04:39;101324.13;;;11.64;69.33
59417;BME280;45222;52.458;20.914;2023-07-08T03:08:26;101319.68;;;11.64;69.24
59417;BME280;45222;52.458;20.914;2023-07-08T03:12:12;101320.05;;;11.64;69.61
59417;BME280;45222;52.458;20.914;2023-07-08T03:15:58;101324.49;;;11.64;69.50
59417;BME280;45222;52.458;20.914;2023-07-08T03:19:45;101329.62;;;11.65;69.79
59417;BME280;45222;52.458;20.914;2023-07-08T03:23:31;101331.54;;;11.66;70.18
59417;BME280;45222;52.458;20.914;2023-07-08T03:27:17;101324.89;;;11.68;70.00
59417;BME280;45222;52.458;20.914;2023-07-08T03:31:03;101330.65;;;11.71;70.53
59417;BME280;45222;52.458;20.914;2023-07-08T03:34:50;101327.81;;;11.75;70.23
59417;BME280;45222;52.458;20.914;2023-07-08T03:38:36;101325.73;;;11.84;69.86
59417;BME280;45222;52.458;20.914;2023-07-08T03:42:22;101326.05;;;11.94;69.65
59417;BME280;45222;52.458;20.914;2023-07-08T03:46:08;101319.55;;;12.05;69.76
59417;BME280;45222;52.458;20.914;2023-07-08T03:49:55;101318.59;;;12.21;69.61
59417;BME280;45222;52.458;20.914;2023-07-08T03:53:41;101322.19;;;12.38;69.82
59417;BME280;45222;52.458;20.914;2023-07-08T03:57:28;101316.86;;;12.59;69.97
59417;BME280;45222;52.458;20.914;2023-07-08T04:01:15;101319.05;;;12.83;69.71
59417;BME280;45222;52.458;20.914;2023-07-08T04:05:02;101321.81;;;13.11;69.71
59417;BME280;45222;52.458;20.914;2023-07-08T04:08:48;101321.34;;;13.33;69.48
59417;BME280;45222;52.458;20.914;2023-07-08T04:12:34;101318.20;;;13.52;69.64
59417;BME280;45222;52.458;20.914;2023-07-08T04:16:21;101321.88;;;13.70;69.05
59417;BME280;45222;52.458;20.914;2023-07-08T04:20:09;101319.51;;;13.86;68.94
59417;BME280;45222;52.458;20.914;2023-07-08T04:23:56;101316.82;;;14.01;68.65
59417;BME280;45222;52.458;20.914;2023-07-08T04:27:42;101313.33;;;14.18;68.36
59417;BME280;45222;52.458;20.914;2023-07-08T04:31:28;101313.81;;;14.38;68.26
59417;BME280;45222;52.458;20.914;2023-07-08T04:35:14;101313.43;;;14.60;68.15
59417;BME280;45222;52.458;20.914;2023-07-08T04:39:01;101315.36;;;14.82;67.92
59417;BME280;45222;52.458;20.914;2023-07-08T04:42:47;101314.71;;;15.06;68.00
59417;BME280;45222;52.458;20.914;2023-07-08T04:46:36;101315.10;;;15.29;67.78
59417;BME280;45222;52.458;20.914;2023-07-08T04:50:23;101309.82;;;15.54;67.16
59417;BME280;45222;52.458;20.914;2023-07-08T04:54:10;101305.20;;;15.80;66.77
59417;BME280;45222;52.458;20.914;2023-07-08T04:57:56;101306.73;;;16.04;66.17
59417;BME280;45222;52.458;20.914;2023-07-08T05:01:43;101310.20;;;16.29;65.78
59417;BME280;45222;52.458;20.914;2023-07-08T05:05:29;101309.13;;;16.54;65.22
59417;BME280;45222;52.458;20.914;2023-07-08T05:09:15;101300.02;;;16.77;64.92
59417;BME280;45222;52.458;20.914;2023-07-08T05:13:01;101296.96;;;16.98;63.67
59417;BME280;45222;52.458;20.914;2023-07-08T05:16:48;101295.30;;;17.20;62.78
59417;BME280;45222;52.458;20.914;2023-07-08T05:20:34;101291.02;;;17.43;62.15
59417;BME280;45222;52.458;20.914;2023-07-08T05:24:21;101289.73;;;17.66;62.10
59417;BME280;45222;52.458;20.914;2023-07-08T05:28:07;101287.64;;;17.88;60.79
59417;BME280;45222;52.458;20.914;2023-07-08T05:31:54;101283.87;;;18.10;59.67
59417;BME280;45222;52.458;20.914;2023-07-08T05:35:40;101283.73;;;18.35;58.95
59417;BME280;45222;52.458;20.914;2023-07-08T05:39:26;101292.23;;;18.58;58.33
59417;BME280;45222;52.458;20.914;2023-07-08T05:43:12;101292.08;;;18.82;58.03
59417;BME280;45222;52.458;20.914;2023-07-08T05:46:59;101290.09;;;19.06;57.31
59417;BME280;45222;52.458;20.914;2023-07-08T05:50:46;101283.88;;;19.30;55.78
59417;BME280;45222;52.458;20.914;2023-07-08T05:54:32;101279.33;;;19.57;55.09
59417;BME280;45222;52.458;20.914;2023-07-08T05:58:19;101272.25;;;19.82;54.54
59417;BME280;45222;52.458;20.914;2023-07-08T06:02:14;101270.70;;;20.09;52.97
59417;BME280;45222;52.458;20.914;2023-07-08T06:06:00;101269.35;;;20.34;52.45
59417;BME280;45222;52.458;20.914;2023-07-08T06:09:47;101268.41;;;20.61;51.53
59417;BME280;45222;52.458;20.914;2023-07-08T06:13:33;101271.90;;;20.91;50.68
59417;BME280;45222;52.458;20.914;2023-07-08T06:17:19;101271.94;;;21.18;50.53
59417;BME280;45222;52.458;20.914;2023-07-08T06:21:05;101269.18;;;21.42;49.74
59417;BME280;45222;52.458;20.914;2023-07-08T06:24:52;101266.21;;;21.65;49.39
59417;BME280;45222;52.458;20.914;2023-07-08T06:28:38;101266.68;;;21.89;48.46
59417;BME280;45222;52.458;20.914;2023-07-08T06:32:24;101263.84;;;22.12;48.04
59417;BME280;45222;52.458;20.914;2023-07-08T06:36:10;101261.15;;;22.36;47.31
59417;BME280;45222;52.458;20.914;2023-07-08T06:39:56;101261.29;;;22.58;45.63
59417;BME280;45222;52.458;20.914;2023-07-08T06:43:42;101256.92;;;22.82;44.72
59417;BME280;45222;52.458;20.914;2023-07-08T06:47:29;101253.17;;;23.08;43.46
59417;BME280;45222;52.458;20.914;2023-07-08T06:51:15;101254.63;;;23.32;43.50
59417;BME280;45222;52.458;20.914;2023-07-08T06:55:01;101249.18;;;23.54;42.90
59417;BME280;45222;52.458;20.914;2023-07-08T06:58:47;101246.90;;;23.74;42.02
59417;BME280;45222;52.458;20.914;2023-07-08T07:02:34;101242.88;;;23.92;41.63
59417;BME280;45222;52.458;20.914;2023-07-08T07:06:20;101237.79;;;24.10;40.81
59417;BME280;45222;52.458;20.914;2023-07-08T07:10:07;101231.42;;;24.26;41.25
59417;BME280;45222;52.458;20.914;2023-07-08T07:13:54;101231.88;;;24.45;41.03
59417;BME280;45222;52.458;20.914;2023-07-08T07:17:40;101229.20;;;24.62;41.10
59417;BME280;45222;52.458;20.914;2023-07-08T07:21:27;101227.23;;;24.77;38.75
59417;BME280;45222;52.458;20.914;2023-07-08T07:25:14;101223.20;;;24.92;39.19
59417;BME280;45222;52.458;20.914;2023-07-08T07:29:00;101225.58;;;25.09;38.77
59417;BME280;45222;52.458;20.914;2023-07-08T07:32:46;101222.57;;;25.28;36.16
59417;BME280;45222;52.458;20.914;2023-07-08T07:36:32;101219.98;;;25.45;36.99
59417;BME280;45222;52.458;20.914;2023-07-08T07:40:19;101221.29;;;25.65;37.88
59417;BME280;45222;52.458;20.914;2023-07-08T07:44:05;101221.30;;;25.84;37.07
59417;BME280;45222;52.458;20.914;2023-07-08T07:47:51;101215.40;;;25.95;36.35
59417;BME280;45222;52.458;20.914;2023-07-08T07:51:37;101213.86;;;26.09;36.47
59417;BME280;45222;52.458;20.914;2023-07-08T07:55:23;101220.98;;;26.10;34.49
59417;BME280;45222;52.458;20.914;2023-07-08T07:59:09;101218.47;;;26.14;34.24
59417;BME280;45222;52.458;20.914;2023-07-08T08:02:55;101219.86;;;26.23;34.14
59417;BME280;45222;52.458;20.914;2023-07-08T08:06:42;101217.84;;;26.40;34.50
59417;BME280;45222;52.458;20.914;2023-07-08T08:10:29;101219.31;;;26.56;34.00
59417;BME280;45222;52.458;20.914;2023-07-08T08:14:17;101220.34;;;26.74;33.87
59417;BME280;45222;52.458;20.914;2023-07-08T08:18:03;101215.14;;;26.89;32.40
59417;BME280;45222;52.458;20.914;2023-07-08T08:21:49;101217.38;;;27.10;32.67
59417;BME280;45222;52.458;20.914;2023-07-08T08:25:36;101216.25;;;27.34;32.69
59417;BME280;45222;52.458;20.914;2023-07-08T08:29:22;101217.16;;;27.55;32.05
59417;BME280;45222;52.458;20.914;2023-07-08T08:33:08;101215.33;;;27.68;31.38
59417;BME280;45222;52.458;20.914;2023-07-08T08:36:54;101218.71;;;27.82;31.10
59417;BME280;45222;52.458;20.914;2023-07-08T08:40:41;101217.19;;;27.94;30.43
59417;BME280;45222;52.458;20.914;2023-07-08T08:44:29;101209.56;;;28.12;30.18
59417;BME280;45222;52.458;20.914;2023-07-08T08:48:17;101211.52;;;28.19;29.88
59417;BME280;45222;52.458;20.914;2023-07-08T08:52:06;101207.95;;;28.02;29.92
59417;BME280;45222;52.458;20.914;2023-07-08T08:55:54;101206.34;;;27.84;30.62
59417;BME280;45222;52.458;20.914;2023-07-08T08:59:44;101205.23;;;28.01;30.26
59417;BME280;45222;52.458;20.914;2023-07-08T09:03:35;101204.83;;;28.12;30.18
59417;BME280;45222;52.458;20.914;2023-07-08T09:07:23;101212.77;;;27.89;29.77
59417;BME280;45222;52.458;20.914;2023-07-08T09:11:16;101213.54;;;27.79;29.48
59417;BME280;45222;52.458;20.914;2023-07-08T09:15:09;101215.20;;;27.55;29.74
59417;BME280;45222;52.458;20.914;2023-07-08T09:18:59;101210.06;;;27.74;30.01
59417;BME280;45222;52.458;20.914;2023-07-08T09:22:46;101200.58;;;28.07;29.54
59417;BME280;45222;52.458;20.914;2023-07-08T09:26:36;101203.58;;;28.42;29.09
59417;BME280;45222;52.458;20.914;2023-07-08T09:30:23;101201.98;;;28.64;29.63
59417;BME280;45222;52.458;20.914;2023-07-08T09:34:10;101208.09;;;28.82;29.32
59417;BME280;45222;52.458;20.914;2023-07-08T09:37:57;101208.91;;;28.99;28.60
59417;BME280;45222;52.458;20.914;2023-07-08T09:41:52;101207.50;;;29.11;28.42
59417;BME280;45222;52.458;20.914;2023-07-08T09:45:41;101203.37;;;29.28;28.32
59417;BME280;45222;52.458;20.914;2023-07-08T09:49:28;101197.81;;;29.01;27.77
59417;BME280;45222;52.458;20.914;2023-07-08T09:53:16;101196.45;;;28.76;28.31
59417;BME280;45222;52.458;20.914;2023-07-08T09:57:04;101200.80;;;28.88;28.52
59417;BME280;45222;52.458;20.914;2023-07-08T10:00:55;101195.01;;;29.08;28.72
59417;BME280;45222;52.458;20.914;2023-07-08T10:04:42;101191.52;;;29.35;27.74
59417;BME280;45222;52.458;20.914;2023-07-08T10:08:31;101180.04;;;29.53;27.68
59417;BME280;45222;52.458;20.914;2023-07-08T10:12:22;101187.64;;;29.80;27.32
59417;BME280;45222;52.458;20.914;2023-07-08T10:16:12;101191.29;;;29.61;26.56
59417;BME280;45222;52.458;20.914;2023-07-08T10:19:59;101186.01;;;29.18;27.57
59417;BME280;45222;52.458;20.914;2023-07-08T10:23:48;101182.55;;;29.39;27.41
59417;BME280;45222;52.458;20.914;2023-07-08T10:27:39;101174.94;;;29.73;27.18
59417;BME280;45222;52.458;20.914;2023-07-08T10:31:27;101171.11;;;30.11;26.74
59417;BME280;45222;52.458;20.914;2023-07-08T10:35:17;101174.51;;;30.29;26.39
59417;BME280;45222;52.458;20.914;2023-07-08T10:39:17;101173.77;;;30.25;26.78
59417;BME280;45222;52.458;20.914;2023-07-08T10:43:15;101168.52;;;30.30;27.11
59417;BME280;45222;52.458;20.914;2023-07-08T10:47:04;101168.59;;;30.54;27.10
59417;BME280;45222;52.458;20.914;2023-07-08T10:50:59;101167.13;;;30.42;26.82
59417;BME280;45222;52.458;20.914;2023-07-08T10:54:53;101161.66;;;30.28;27.11
59417;BME280;45222;52.458;20.914;2023-07-08T10:58:58;101161.48;;;30.35;25.77
59417;BME280;45222;52.458;20.914;2023-07-08T11:03:13;101152.45;;;30.16;26.12
59417;BME280;45222;52.458;20.914;2023-07-08T11:07:08;101151.00;;;29.83;26.09
59417;BME280;45222;52.458;20.914;2023-07-08T11:10:58;101155.05;;;29.55;26.87
59417;BME280;45222;52.458;20.914;2023-07-08T11:14:48;101166.86;;;29.06;26.91
59417;BME280;45222;52.458;20.914;2023-07-08T11:18:38;101160.75;;;28.82;27.54
59417;BME280;45222;52.458;20.914;2023-07-08T11:22:25;101154.10;;;28.65;27.84
59417;BME280;45222;52.458;20.914;2023-07-08T11:26:16;101147.38;;;28.65;27.63
59417;BME280;45222;52.458;20.914;2023-07-08T11:30:05;101141.10;;;28.52;27.67
59417;BME280;45222;52.458;20.914;2023-07-08T11:33:53;101135.31;;;28.82;27.72
59417;BME280;45222;52.458;20.914;2023-07-08T11:37:40;101133.03;;;29.41;27.36
59417;BME280;45222;52.458;20.914;2023-07-08T11:41:26;101129.56;;;30.00;25.61
59417;BME280;45222;52.458;20.914;2023-07-08T11:45:19;101125.46;;;30.39;25.63
59417;BME280;45222;52.458;20.914;2023-07-08T11:49:12;101127.95;;;30.31;26.04
59417;BME280;45222;52.458;20.914;2023-07-08T11:53:00;101129.58;;;30.11;26.09
59417;BME280;45222;52.458;20.914;2023-07-08T11:56:57;101128.33;;;29.90;26.41
59417;BME280;45222;52.458;20.914;2023-07-08T12:00:57;101129.45;;;30.04;26.16
59417;BME280;45222;52.458;20.914;2023-07-08T12:04:53;101127.13;;;30.52;26.48
59417;BME280;45222;52.458;20.914;2023-07-08T12:08:41;101124.52;;;31.10;25.35
59417;BME280;45222;52.458;20.914;2023-07-08T12:12:29;101123.16;;;31.36;24.90
59417;BME280;45222;52.458;20.914;2023-07-08T12:16:16;101120.73;;;31.27;24.79
59417;BME280;45222;52.458;20.914;2023-07-08T12:20:02;101112.00;;;31.56;24.74
59417;BME280;45222;52.458;20.914;2023-07-08T12:23:53;101101.50;;;32.04;24.70
59417;BME280;45222;52.458;20.914;2023-07-08T12:27:39;101097.33;;;32.43;23.68
59417;BME280;45222;52.458;20.914;2023-07-08T12:31:26;101098.38;;;32.34;23.18
59417;BME280;45222;52.458;20.914;2023-07-08T12:35:17;101092.59;;;32.40;23.65
59417;BME280;45222;52.458;20.914;2023-07-08T12:39:04;101092.48;;;32.60;23.57
59417;BME280;45222;52.458;20.914;2023-07-08T12:42:50;101087.02;;;32.81;23.41
59417;BME280;45222;52.458;20.914;2023-07-08T12:46:37;101084.88;;;32.90;22.46
59417;BME280;45222;52.458;20.914;2023-07-08T12:50:23;101074.48;;;32.94;23.05
59417;BME280;45222;52.458;20.914;2023-07-08T12:54:09;101071.98;;;33.02;23.06
59417;BME280;45222;52.458;20.914;2023-07-08T12:57:55;101073.36;;;33.00;22.47
59417;BME280;45222;52.458;20.914;2023-07-08T13:01:42;101076.41;;;32.78;22.23
59417;BME280;45222;52.458;20.914;2023-07-08T13:05:31;101068.66;;;32.64;22.58
59417;BME280;45222;52.458;20.914;2023-07-08T13:09:21;101060.24;;;32.72;22.61
59417;BME280;45222;52.458;20.914;2023-07-08T13:13:11;101065.06;;;33.00;22.86
59417;BME280;45222;52.458;20.914;2023-07-08T13:16:59;101061.73;;;32.65;22.59
59417;BME280;45222;52.458;20.914;2023-07-08T13:20:47;101059.41;;;32.24;23.26
59417;BME280;45222;52.458;20.914;2023-07-08T13:24:35;101055.13;;;32.20;23.33
59417;BME280;45222;52.458;20.914;2023-07-08T13:28:24;101055.22;;;32.51;23.43
59417;BME280;45222;52.458;20.914;2023-07-08T13:32:11;101057.27;;;32.64;22.98
59417;BME280;45222;52.458;20.914;2023-07-08T13:35:57;101046.16;;;32.60;22.63
59417;BME280;45222;52.458;20.914;2023-07-08T13:39:45;101051.27;;;32.25;22.87
59417;BME280;45222;52.458;20.914;2023-07-08T13:43:32;101055.95;;;32.02;22.84
59417;BME280;45222;52.458;20.914;2023-07-08T13:47:23;101054.66;;;32.00;23.09
59417;BME280;45222;52.458;20.914;2023-07-08T13:51:15;101048.20;;;32.19;23.18
59417;BME280;45222;52.458;20.914;2023-07-08T13:55:06;101040.50;;;32.57;23.10
59417;BME280;45222;52.458;20.914;2023-07-08T13:59:00;101034.48;;;32.88;22.61
59417;BME280;45222;52.458;20.914;2023-07-08T14:02:46;101037.48;;;32.91;22.71
59417;BME280;45222;52.458;20.914;2023-07-08T14:06:34;101035.61;;;32.98;22.22
59417;BME280;45222;52.458;20.914;2023-07-08T14:10:20;101034.46;;;33.00;21.93
59417;BME280;45222;52.458;20.914;2023-07-08T14:14:07;101028.97;;;33.11;22.02
59417;BME280;45222;52.458;20.914;2023-07-08T14:17:53;101027.93;;;33.20;22.19
59417;BME280;45222;52.458;20.914;2023-07-08T14:21:40;101028.84;;;33.10;21.99
59417;BME280;45222;52.458;20.914;2023-07-08T14:25:26;101029.25;;;32.61;22.03
59417;BME280;45222;52.458;20.914;2023-07-08T14:29:12;101023.01;;;32.09;22.75
59417;BME280;45222;52.458;20.914;2023-07-08T14:32:58;101019.74;;;31.82;23.09
59417;BME280;45222;52.458;20.914;2023-07-08T14:36:45;101016.05;;;31.60;23.22
59417;BME280;45222;52.458;20.914;2023-07-08T14:40:33;101015.31;;;31.43;23.25
59417;BME280;45222;52.458;20.914;2023-07-08T14:44:22;101010.23;;;31.40;23.66
59417;BME280;45222;52.458;20.914;2023-07-08T14:48:09;101010.55;;;31.38;23.74
59417;BME280;45222;52.458;20.914;2023-07-08T14:51:55;101003.00;;;31.37;23.92
59417;BME280;45222;52.458;20.914;2023-07-08T14:55:42;100998.41;;;31.47;23.83
59417;BME280;45222;52.458;20.914;2023-07-08T14:59:30;100989.90;;;31.26;23.60
59417;BME280;45222;52.458;20.914;2023-07-08T15:03:17;100986.24;;;31.21;23.95
59417;BME280;45222;52.458;20.914;2023-07-08T15:07:07;100986.36;;;31.16;23.72
59417;BME280;45222;52.458;20.914;2023-07-08T15:47:18;100976.02;;;29.90;24.96
59417;BME280;45222;52.458;20.914;2023-07-08T15:51:03;100971.64;;;29.93;25.31
59417;BME280;45222;52.458;20.914;2023-07-08T15:54:48;100970.48;;;30.01;25.33
59417;BME280;45222;52.458;20.914;2023-07-08T15:58:34;100975.77;;;30.04;25.35
59417;BME280;45222;52.458;20.914;2023-07-08T16:02:27;100975.27;;;29.91;24.87
59417;BME280;45222;52.458;20.914;2023-07-08T16:06:13;100973.26;;;29.70;25.62
59417;BME280;45222;52.458;20.914;2023-07-08T16:09:58;100969.61;;;29.72;25.62
59417;BME280;45222;52.458;20.914;2023-07-08T16:13:45;100965.55;;;29.76;25.68
59417;BME280;45222;52.458;20.914;2023-07-08T16:17:34;100966.47;;;29.78;25.66
59417;BME280;45222;52.458;20.914;2023-07-08T16:21:21;100967.52;;;29.77;25.51
59417;BME280;45222;52.458;20.914;2023-07-08T16:25:10;100966.77;;;29.66;25.41
59417;BME280;45222;52.458;20.914;2023-07-08T16:28:56;100956.27;;;29.58;25.39
59417;BME280;45222;52.458;20.914;2023-07-08T16:32:43;100952.84;;;29.53;25.67
59417;BME280;45222;52.458;20.914;2023-07-08T16:36:28;100954.45;;;29.57;25.88
59417;BME280;45222;52.458;20.914;2023-07-08T16:40:17;100950.90;;;29.58;25.76
59417;BME280;45222;52.458;20.914;2023-07-08T16:44:03;100949.02;;;29.57;25.90
59417;BME280;45222;52.458;20.914;2023-07-08T16:47:49;100953.55;;;29.43;26.19
59417;BME280;45222;52.458;20.914;2023-07-08T16:51:36;100953.17;;;29.23;26.44
59417;BME280;45222;52.458;20.914;2023-07-08T16:55:21;100953.56;;;29.05;26.66
59417;BME280;45222;52.458;20.914;2023-07-08T16:59:07;100950.87;;;28.92;27.11
59417;BME280;45222;52.458;20.914;2023-07-08T17:02:52;100948.95;;;28.73;27.38
59417;BME280;45222;52.458;20.914;2023-07-08T17:06:37;100950.38;;;28.58;27.56
59417;BME280;45222;52.458;20.914;2023-07-08T17:10:22;100953.04;;;28.38;27.58
59417;BME280;45222;52.458;20.914;2023-07-08T17:14:08;100949.43;;;28.25;27.89
59417;BME280;45222;52.458;20.914;2023-07-08T17:17:58;100949.86;;;28.16;28.31
59417;BME280;45222;52.458;20.914;2023-07-08T17:21:43;100951.02;;;28.09;28.91
59417;BME280;45222;52.458;20.914;2023-07-08T17:25:30;100952.67;;;28.04;29.05
59417;BME280;45222;52.458;20.914;2023-07-08T17:29:15;100953.66;;;28.01;29.06
59417;BME280;45222;52.458;20.914;2023-07-08T17:33:01;100955.25;;;27.99;29.18
59417;BME280;45222;52.458;20.914;2023-07-08T17:36:47;100957.27;;;27.94;29.55
59417;BME280;45222;52.458;20.914;2023-07-08T17:40:33;100955.05;;;27.88;29.71
59417;BME280;45222;52.458;20.914;2023-07-08T17:44:18;100955.55;;;27.78;30.00
59417;BME280;45222;52.458;20.914;2023-07-08T17:48:04;100955.33;;;27.72;30.10
59417;BME280;45222;52.458;20.914;2023-07-08T17:51:49;100955.02;;;27.70;30.43
59417;BME280;45222;52.458;20.914;2023-07-08T17:55:35;100954.61;;;27.67;30.71
59417;BME280;45222;52.458;20.914;2023-07-08T17:59:20;100956.73;;;27.69;30.88
59417;BME280;45222;52.458;20.914;2023-07-08T18:03:08;100957.59;;;27.55;30.87
59417;BME280;45222;52.458;20.914;2023-07-08T18:06:54;100963.59;;;27.27;31.24
59417;BME280;45222;52.458;20.914;2023-07-08T18:10:39;100962.66;;;26.99;31.63
59417;BME280;45222;52.458;20.914;2023-07-08T18:14:24;100965.91;;;26.70;32.19
59417;BME280;45222;52.458;20.914;2023-07-08T18:18:10;100967.44;;;26.45;32.73
59417;BME280;45222;52.458;20.914;2023-07-08T18:21:56;100971.01;;;26.25;33.04
59417;BME280;45222;52.458;20.914;2023-07-08T18:25:41;100973.38;;;26.10;33.64
59417;BME280;45222;52.458;20.914;2023-07-08T18:29:26;100972.70;;;25.93;34.02
59417;BME280;45222;52.458;20.914;2023-07-08T18:33:15;100976.83;;;25.76;34.31
59417;BME280;45222;52.458;20.914;2023-07-08T18:37:01;100983.91;;;25.60;34.90
59417;BME280;45222;52.458;20.914;2023-07-08T18:40:48;100982.77;;;25.43;35.84
59417;BME280;45222;52.458;20.914;2023-07-08T18:44:35;100983.27;;;25.21;36.09
59417;BME280;45222;52.458;20.914;2023-07-08T18:48:21;100985.36;;;24.95;36.81
59417;BME280;45222;52.458;20.914;2023-07-08T18:52:09;100981.67;;;24.68;37.43
59417;BME280;45222;52.458;20.914;2023-07-08T18:55:54;100986.78;;;24.40;38.53
59417;BME280;45222;52.458;20.914;2023-07-08T18:59:40;100989.19;;;24.11;39.42
59417;BME280;45222;52.458;20.914;2023-07-08T19:03:28;100995.02;;;23.83;40.20
59417;BME280;45222;52.458;20.914;2023-07-08T19:07:14;100997.43;;;23.58;40.78
59417;BME280;45222;52.458;20.914;2023-07-08T19:10:59;101000.37;;;23.34;41.46
59417;BME280;45222;52.458;20.914;2023-07-08T19:14:44;101006.41;;;23.13;41.93
59417;BME280;45222;52.458;20.914;2023-07-08T19:18:30;101013.10;;;22.93;42.72
59417;BME280;45222;52.458;20.914;2023-07-08T19:22:16;101011.61;;;22.73;43.48
59417;BME280;45222;52.458;20.914;2023-07-08T19:26:03;101013.58;;;22.53;43.91
59417;BME280;45222;52.458;20.914;2023-07-08T19:29:48;101020.89;;;22.34;44.65
59417;BME280;45222;52.458;20.914;2023-07-08T19:33:34;101025.35;;;22.14;45.09
59417;BME280;45222;52.458;20.914;2023-07-08T19:37:21;101028.81;;;21.90;45.39
59417;BME280;45222;52.458;20.914;2023-07-08T19:41:09;101032.77;;;21.71;46.03
59417;BME280;45222;52.458;20.914;2023-07-08T19:44:55;101033.05;;;21.48;46.86
59417;BME280;45222;52.458;20.914;2023-07-08T19:48:41;101032.27;;;21.27;46.93
59417;BME280;45222;52.458;20.914;2023-07-08T19:52:27;101035.39;;;21.09;47.54
59417;BME280;45222;52.458;20.914;2023-07-08T19:56:13;101035.80;;;20.88;48.45
59417;BME280;45222;52.458;20.914;2023-07-08T19:59:59;101035.44;;;20.66;48.69
59417;BME280;45222;52.458;20.914;2023-07-08T20:03:45;101039.41;;;20.43;48.80
59417;BME280;45222;52.458;20.914;2023-07-08T20:07:30;101040.69;;;20.24;48.91
59417;BME280;45222;52.458;20.914;2023-07-08T20:11:16;101046.17;;;20.10;49.23